Naval Hospital, North Carolina
Current Conditions -  °F | °C
As of 5:56 PM on Thursday 27 Nov 2014 (Local Time) from KNCA Reporting Station
Few Clouds Few Clouds  
Wind Chill: 40°   Ceiling: Unl
Heat Index: 45°   Visibility: 10mi
Dew Point: 38°   Wind: 9mph
Humidity: 76%   Direction: 300°WNW
Pressure: 30.13"   Gusts: NA
Location:  34.7003°N, 77.3614°W
Report Text: KNCA 272256Z AUTO 30008KT 10SM FEW032 07/03 A3013 RMK AO2 SLP204 T00720033
Loading
Personal Weather Stations






























Interactive Weather Map New forecast layout! Learn more

10-Day Weather Forecast

Advertisements
Track Severe Weather on mobile